Ana Sayfa
METAR-TAF:

METAR-TAF

Havaalanları :

Caracas, Venezuela

Enlem: 10-36N, Boylam: 066-59W, yükseklik: 43 m

Güncel hava durumu gözlemi

Rapor saat 20:00 UTC de 39 dakika önce yapıldı.
Sıcaklık 28°C
Nem 74%
Basınç 1012 hPa
Görüş mesafesi 10 km veya daha fazla
1600 ft yükseklikte parçalı çok bulutlu

METAR: SVMI 222000Z /////KT 9999 BKN016 28/23 Q1012

Saat: 16:39 (20:39 UTC)

Tahmin

Rapor saat 16:00 UTC de 4 saat ve 39 dakika önce yapıldı.
Ayın 22'si saat 18 UTC'den ayın 23'si saat 18 UTC'ye kadar geçerli Tahmin
Rüzgar batı/güneybatıdan 5 kt
Görüş mesafesi 10 km veya daha fazla
1600 ft yükseklikte az bulutlu
Dönüşüyor
ayın 22'si saat 18 UTC'den ayın 22'si saat 22 UTC'ye kadar
Rüzgar kuzeydan 2 kt
Görüş mesafesi 10 km veya daha fazla
1600 ft yükseklikte parçalı bulutlu

TAF: SVMI 221600Z 2218/2318 24005KT 9999 FEW016 TX31/18Z TN26/09Z BECMG 2218/2222 35002KT 9999 SCT016

4.000'den fazla havaalanı için hava durumu gözlemleri ve tahminleri (METAR ve TAF raporları).

Kullanılabilir istasyonlar harita üzerinde sarı ve kırmızı noktalarla gösterilir.

İstasyonun adını görmek için fareyi noktanın üzerinde gezdirin.

Sonrasında hava gözlem ve tahminlerini görmek için tıklayın.

Haritayı değiştirmek için: yaklaştırmak için siyah artı işaretli yeşil düğmeye ve uzaklaştırmak için de eksi işaretli düğmeye hızla tıklayın; bitişik haritalar için yeşil okları kullanın.


METAR-TAF: